sensor_id;sensor_type;location;lat;lon;timestamp;P1;durP1;ratioP1;P2;durP2;ratioP2
23519;SDS011;11936;50.820;4.336;2022-12-08T00:01:07;22.20;;;16.08;;
23519;SDS011;11936;50.820;4.336;2022-12-08T00:03:34;25.80;;;17.08;;
23519;SDS011;11936;50.820;4.336;2022-12-08T00:06:00;26.40;;;16.35;;
23519;SDS011;11936;50.820;4.336;2022-12-08T00:08:45;26.55;;;17.40;;
23519;SDS011;11936;50.820;4.336;2022-12-08T00:11:29;24.13;;;15.60;;
23519;SDS011;11936;50.820;4.336;2022-12-08T00:13:55;26.65;;;16.25;;
23519;SDS011;11936;50.820;4.336;2022-12-08T00:16:21;27.52;;;16.70;;
23519;SDS011;11936;50.820;4.336;2022-12-08T00:18:46;25.85;;;16.15;;
23519;SDS011;11936;50.820;4.336;2022-12-08T00:21:12;17.95;;;14.15;;
23519;SDS011;11936;50.820;4.336;2022-12-08T00:23:38;24.17;;;16.02;;
23519;SDS011;11936;50.820;4.336;2022-12-08T00:26:03;25.08;;;14.65;;
23519;SDS011;11936;50.820;4.336;2022-12-08T00:28:30;21.38;;;14.70;;
23519;SDS011;11936;50.820;4.336;2022-12-08T00:30:57;20.15;;;14.60;;
23519;SDS011;11936;50.820;4.336;2022-12-08T00:33:23;22.45;;;15.48;;
23519;SDS011;11936;50.820;4.336;2022-12-08T00:35:48;23.15;;;15.27;;
23519;SDS011;11936;50.820;4.336;2022-12-08T00:38:14;24.60;;;16.02;;
23519;SDS011;11936;50.820;4.336;2022-12-08T00:40:46;22.48;;;15.50;;
23519;SDS011;11936;50.820;4.336;2022-12-08T00:43:12;23.25;;;15.70;;
23519;SDS011;11936;50.820;4.336;2022-12-08T00:45:38;23.58;;;15.73;;
23519;SDS011;11936;50.820;4.336;2022-12-08T00:48:04;26.85;;;15.57;;
23519;SDS011;11936;50.820;4.336;2022-12-08T00:50:30;31.90;;;16.67;;
23519;SDS011;11936;50.820;4.336;2022-12-08T00:52:56;25.77;;;15.75;;
23519;SDS011;11936;50.820;4.336;2022-12-08T00:55:21;24.33;;;16.00;;
23519;SDS011;11936;50.820;4.336;2022-12-08T00:57:47;25.10;;;15.45;;
23519;SDS011;11936;50.820;4.336;2022-12-08T01:00:13;25.42;;;15.85;;
23519;SDS011;11936;50.820;4.336;2022-12-08T01:02:39;27.35;;;16.88;;
23519;SDS011;11936;50.820;4.336;2022-12-08T01:05:05;23.60;;;16.60;;
23519;SDS011;11936;50.820;4.336;2022-12-08T01:07:30;28.05;;;16.40;;
23519;SDS011;11936;50.820;4.336;2022-12-08T01:09:56;28.15;;;17.48;;
23519;SDS011;11936;50.820;4.336;2022-12-08T01:12:22;24.92;;;16.88;;
23519;SDS011;11936;50.820;4.336;2022-12-08T01:14:48;25.83;;;17.05;;
23519;SDS011;11936;50.820;4.336;2022-12-08T01:17:13;25.63;;;16.58;;
23519;SDS011;11936;50.820;4.336;2022-12-08T01:19:39;22.20;;;15.27;;
23519;SDS011;11936;50.820;4.336;2022-12-08T01:22:04;27.58;;;17.60;;
23519;SDS011;11936;50.820;4.336;2022-12-08T01:24:30;26.95;;;16.92;;
23519;SDS011;11936;50.820;4.336;2022-12-08T01:26:56;28.15;;;17.13;;
23519;SDS011;11936;50.820;4.336;2022-12-08T01:29:22;26.58;;;17.23;;
23519;SDS011;11936;50.820;4.336;2022-12-08T01:31:47;31.60;;;18.10;;
23519;SDS011;11936;50.820;4.336;2022-12-08T01:34:13;28.88;;;17.35;;
23519;SDS011;11936;50.820;4.336;2022-12-08T01:36:39;34.25;;;20.40;;
23519;SDS011;11936;50.820;4.336;2022-12-08T01:39:06;30.52;;;18.40;;
23519;SDS011;11936;50.820;4.336;2022-12-08T01:41:35;36.35;;;17.70;;
23519;SDS011;11936;50.820;4.336;2022-12-08T01:46:38;38.42;;;18.90;;
23519;SDS011;11936;50.820;4.336;2022-12-08T01:51:37;34.35;;;20.08;;
23519;SDS011;11936;50.820;4.336;2022-12-08T01:54:12;32.17;;;20.00;;
23519;SDS011;11936;50.820;4.336;2022-12-08T01:56:40;32.50;;;19.50;;
23519;SDS011;11936;50.820;4.336;2022-12-08T01:59:14;35.33;;;20.30;;
23519;SDS011;11936;50.820;4.336;2022-12-08T02:01:41;38.53;;;20.42;;
23519;SDS011;11936;50.820;4.336;2022-12-08T02:04:06;32.33;;;20.92;;
23519;SDS011;11936;50.820;4.336;2022-12-08T02:06:35;34.83;;;19.88;;
23519;SDS011;11936;50.820;4.336;2022-12-08T02:09:05;32.85;;;21.02;;
23519;SDS011;11936;50.820;4.336;2022-12-08T02:11:31;32.78;;;20.35;;
23519;SDS011;11936;50.820;4.336;2022-12-08T02:13:57;34.08;;;20.67;;
23519;SDS011;11936;50.820;4.336;2022-12-08T02:22:29;34.08;;;19.55;;
23519;SDS011;11936;50.820;4.336;2022-12-08T02:25:19;37.92;;;20.15;;
23519;SDS011;11936;50.820;4.336;2022-12-08T02:28:01;31.65;;;20.45;;
23519;SDS011;11936;50.820;4.336;2022-12-08T02:33:52;36.33;;;18.77;;
23519;SDS011;11936;50.820;4.336;2022-12-08T02:39:23;36.88;;;20.40;;
23519;SDS011;11936;50.820;4.336;2022-12-08T02:42:24;28.17;;;19.00;;
23519;SDS011;11936;50.820;4.336;2022-12-08T02:47:21;40.35;;;19.52;;
23519;SDS011;11936;50.820;4.336;2022-12-08T02:49:49;32.40;;;18.67;;
23519;SDS011;11936;50.820;4.336;2022-12-08T02:54:48;32.15;;;20.20;;
23519;SDS011;11936;50.820;4.336;2022-12-08T03:00:20;27.02;;;18.27;;
23519;SDS011;11936;50.820;4.336;2022-12-08T03:02:54;31.25;;;19.55;;
23519;SDS011;11936;50.820;4.336;2022-12-08T03:08:15;32.47;;;18.48;;
23519;SDS011;11936;50.820;4.336;2022-12-08T03:11:00;34.15;;;20.50;;
23519;SDS011;11936;50.820;4.336;2022-12-08T03:13:41;31.48;;;18.20;;
23519;SDS011;11936;50.820;4.336;2022-12-08T03:16:11;32.03;;;18.80;;
23519;SDS011;11936;50.820;4.336;2022-12-08T03:18:47;34.40;;;19.52;;
23519;SDS011;11936;50.820;4.336;2022-12-08T03:21:15;33.05;;;18.98;;
23519;SDS011;11936;50.820;4.336;2022-12-08T03:23:45;33.65;;;19.27;;
23519;SDS011;11936;50.820;4.336;2022-12-08T03:26:26;30.30;;;19.00;;
23519;SDS011;11936;50.820;4.336;2022-12-08T03:28:56;35.25;;;19.02;;
23519;SDS011;11936;50.820;4.336;2022-12-08T03:31:23;26.33;;;16.83;;
23519;SDS011;11936;50.820;4.336;2022-12-08T03:33:53;26.42;;;18.05;;
23519;SDS011;11936;50.820;4.336;2022-12-08T03:36:22;34.22;;;18.63;;
23519;SDS011;11936;50.820;4.336;2022-12-08T03:38:49;31.25;;;19.23;;
23519;SDS011;11936;50.820;4.336;2022-12-08T03:41:16;30.25;;;17.15;;
23519;SDS011;11936;50.820;4.336;2022-12-08T03:43:46;26.58;;;16.77;;
23519;SDS011;11936;50.820;4.336;2022-12-08T03:46:14;28.42;;;18.10;;
23519;SDS011;11936;50.820;4.336;2022-12-08T03:48:40;26.92;;;16.48;;
23519;SDS011;11936;50.820;4.336;2022-12-08T03:51:06;30.38;;;16.85;;
23519;SDS011;11936;50.820;4.336;2022-12-08T03:53:31;31.80;;;17.45;;
23519;SDS011;11936;50.820;4.336;2022-12-08T03:55:57;25.55;;;16.02;;
23519;SDS011;11936;50.820;4.336;2022-12-08T03:58:23;27.38;;;16.35;;
23519;SDS011;11936;50.820;4.336;2022-12-08T04:00:48;25.88;;;17.15;;
23519;SDS011;11936;50.820;4.336;2022-12-08T04:03:14;27.42;;;16.38;;
23519;SDS011;11936;50.820;4.336;2022-12-08T04:05:39;23.33;;;15.18;;
23519;SDS011;11936;50.820;4.336;2022-12-08T04:08:05;28.48;;;17.02;;
23519;SDS011;11936;50.820;4.336;2022-12-08T04:10:30;27.55;;;16.70;;
23519;SDS011;11936;50.820;4.336;2022-12-08T04:12:56;28.48;;;16.67;;
23519;SDS011;11936;50.820;4.336;2022-12-08T04:15:22;30.10;;;16.45;;
23519;SDS011;11936;50.820;4.336;2022-12-08T04:17:47;29.48;;;16.17;;
23519;SDS011;11936;50.820;4.336;2022-12-08T04:20:13;35.10;;;16.38;;
23519;SDS011;11936;50.820;4.336;2022-12-08T04:22:39;30.52;;;16.02;;
23519;SDS011;11936;50.820;4.336;2022-12-08T04:25:04;31.60;;;17.40;;
23519;SDS011;11936;50.820;4.336;2022-12-08T04:27:31;24.92;;;16.38;;
23519;SDS011;11936;50.820;4.336;2022-12-08T04:29:56;27.00;;;16.73;;
23519;SDS011;11936;50.820;4.336;2022-12-08T04:32:22;26.20;;;15.77;;
23519;SDS011;11936;50.820;4.336;2022-12-08T04:34:47;29.10;;;16.52;;
23519;SDS011;11936;50.820;4.336;2022-12-08T04:37:13;27.83;;;17.80;;
23519;SDS011;11936;50.820;4.336;2022-12-08T04:39:38;27.23;;;16.02;;
23519;SDS011;11936;50.820;4.336;2022-12-08T04:42:04;28.25;;;16.67;;
23519;SDS011;11936;50.820;4.336;2022-12-08T04:44:29;34.35;;;16.38;;
23519;SDS011;11936;50.820;4.336;2022-12-08T04:46:55;26.85;;;16.52;;
23519;SDS011;11936;50.820;4.336;2022-12-08T04:49:21;31.77;;;17.65;;
23519;SDS011;11936;50.820;4.336;2022-12-08T04:51:46;25.35;;;16.55;;
23519;SDS011;11936;50.820;4.336;2022-12-08T04:54:12;28.27;;;16.77;;
23519;SDS011;11936;50.820;4.336;2022-12-08T04:56:37;26.63;;;16.35;;
23519;SDS011;11936;50.820;4.336;2022-12-08T04:59:03;27.73;;;15.50;;
23519;SDS011;11936;50.820;4.336;2022-12-08T05:01:28;27.42;;;16.30;;
23519;SDS011;11936;50.820;4.336;2022-12-08T05:03:54;29.95;;;15.60;;
23519;SDS011;11936;50.820;4.336;2022-12-08T05:06:20;20.67;;;13.60;;
23519;SDS011;11936;50.820;4.336;2022-12-08T05:08:46;25.08;;;14.98;;
23519;SDS011;11936;50.820;4.336;2022-12-08T05:11:12;26.85;;;15.02;;
23519;SDS011;11936;50.820;4.336;2022-12-08T05:13:37;26.88;;;15.15;;
23519;SDS011;11936;50.820;4.336;2022-12-08T05:16:10;22.23;;;13.57;;
23519;SDS011;11936;50.820;4.336;2022-12-08T05:18:37;26.65;;;15.02;;
23519;SDS011;11936;50.820;4.336;2022-12-08T05:21:04;22.48;;;14.63;;
23519;SDS011;11936;50.820;4.336;2022-12-08T05:23:30;26.38;;;15.90;;
23519;SDS011;11936;50.820;4.336;2022-12-08T05:25:56;23.60;;;15.02;;
23519;SDS011;11936;50.820;4.336;2022-12-08T05:28:21;24.25;;;14.18;;
23519;SDS011;11936;50.820;4.336;2022-12-08T05:30:47;24.52;;;14.00;;
23519;SDS011;11936;50.820;4.336;2022-12-08T05:33:13;24.55;;;14.35;;
23519;SDS011;11936;50.820;4.336;2022-12-08T05:35:39;21.65;;;13.27;;
23519;SDS011;11936;50.820;4.336;2022-12-08T05:38:05;26.70;;;15.40;;
23519;SDS011;11936;50.820;4.336;2022-12-08T05:40:31;24.95;;;13.65;;
23519;SDS011;11936;50.820;4.336;2022-12-08T05:42:56;28.45;;;14.00;;
23519;SDS011;11936;50.820;4.336;2022-12-08T05:45:22;22.75;;;13.10;;
23519;SDS011;11936;50.820;4.336;2022-12-08T05:47:47;24.25;;;14.00;;
23519;SDS011;11936;50.820;4.336;2022-12-08T05:50:13;25.77;;;13.77;;
23519;SDS011;11936;50.820;4.336;2022-12-08T05:52:39;22.92;;;13.77;;
23519;SDS011;11936;50.820;4.336;2022-12-08T05:55:04;21.33;;;14.10;;
23519;SDS011;11936;50.820;4.336;2022-12-08T05:57:30;22.40;;;13.25;;
23519;SDS011;11936;50.820;4.336;2022-12-08T05:59:56;24.42;;;14.32;;
23519;SDS011;11936;50.820;4.336;2022-12-08T06:02:23;24.67;;;12.88;;
23519;SDS011;11936;50.820;4.336;2022-12-08T06:04:49;24.88;;;12.98;;
23519;SDS011;11936;50.820;4.336;2022-12-08T06:07:15;21.17;;;12.95;;
23519;SDS011;11936;50.820;4.336;2022-12-08T06:09:41;28.27;;;14.75;;
23519;SDS011;11936;50.820;4.336;2022-12-08T06:12:07;25.35;;;14.30;;
23519;SDS011;11936;50.820;4.336;2022-12-08T06:14:35;25.23;;;13.38;;
23519;SDS011;11936;50.820;4.336;2022-12-08T06:17:02;25.08;;;13.10;;
23519;SDS011;11936;50.820;4.336;2022-12-08T06:19:28;25.77;;;13.00;;
23519;SDS011;11936;50.820;4.336;2022-12-08T06:21:54;28.30;;;13.45;;
23519;SDS011;11936;50.820;4.336;2022-12-08T06:24:20;19.30;;;13.05;;
23519;SDS011;11936;50.820;4.336;2022-12-08T06:26:45;22.83;;;12.65;;
23519;SDS011;11936;50.820;4.336;2022-12-08T06:29:11;23.27;;;12.48;;
23519;SDS011;11936;50.820;4.336;2022-12-08T06:31:37;24.98;;;12.82;;
23519;SDS011;11936;50.820;4.336;2022-12-08T06:34:03;22.85;;;11.38;;
23519;SDS011;11936;50.820;4.336;2022-12-08T06:36:28;22.52;;;12.13;;
23519;SDS011;11936;50.820;4.336;2022-12-08T06:38:54;22.40;;;11.63;;
23519;SDS011;11936;50.820;4.336;2022-12-08T06:41:20;19.58;;;11.93;;
23519;SDS011;11936;50.820;4.336;2022-12-08T06:43:46;19.17;;;11.23;;
23519;SDS011;11936;50.820;4.336;2022-12-08T06:46:13;20.95;;;12.30;;
23519;SDS011;11936;50.820;4.336;2022-12-08T06:53:49;17.27;;;11.45;;
23519;SDS011;11936;50.820;4.336;2022-12-08T06:56:15;26.77;;;11.98;;
23519;SDS011;11936;50.820;4.336;2022-12-08T07:01:10;20.63;;;10.75;;
23519;SDS011;11936;50.820;4.336;2022-12-08T07:03:37;21.88;;;10.88;;
23519;SDS011;11936;50.820;4.336;2022-12-08T07:06:03;27.90;;;12.27;;
23519;SDS011;11936;50.820;4.336;2022-12-08T07:08:30;24.13;;;12.45;;
23519;SDS011;11936;50.820;4.336;2022-12-08T07:10:56;22.95;;;10.98;;
23519;SDS011;11936;50.820;4.336;2022-12-08T07:13:22;21.40;;;10.85;;
23519;SDS011;11936;50.820;4.336;2022-12-08T07:15:48;18.40;;;10.73;;
23519;SDS011;11936;50.820;4.336;2022-12-08T07:18:13;23.30;;;11.50;;
23519;SDS011;11936;50.820;4.336;2022-12-08T07:20:39;25.02;;;11.07;;
23519;SDS011;11936;50.820;4.336;2022-12-08T07:23:05;20.80;;;12.05;;
23519;SDS011;11936;50.820;4.336;2022-12-08T07:25:30;21.10;;;11.07;;
23519;SDS011;11936;50.820;4.336;2022-12-08T07:27:56;23.23;;;12.07;;
23519;SDS011;11936;50.820;4.336;2022-12-08T07:30:21;23.77;;;11.45;;
23519;SDS011;11936;50.820;4.336;2022-12-08T07:32:47;31.27;;;11.93;;
23519;SDS011;11936;50.820;4.336;2022-12-08T07:35:12;23.95;;;11.85;;
23519;SDS011;11936;50.820;4.336;2022-12-08T07:37:38;20.23;;;11.93;;
23519;SDS011;11936;50.820;4.336;2022-12-08T07:40:06;24.10;;;11.93;;
23519;SDS011;11936;50.820;4.336;2022-12-08T07:42:32;22.63;;;12.82;;
23519;SDS011;11936;50.820;4.336;2022-12-08T07:44:58;22.60;;;11.68;;
23519;SDS011;11936;50.820;4.336;2022-12-08T07:47:24;24.80;;;11.73;;
23519;SDS011;11936;50.820;4.336;2022-12-08T07:49:50;23.88;;;11.48;;
23519;SDS011;11936;50.820;4.336;2022-12-08T07:52:16;19.85;;;12.10;;
23519;SDS011;11936;50.820;4.336;2022-12-08T07:54:42;28.23;;;13.43;;
23519;SDS011;11936;50.820;4.336;2022-12-08T07:57:08;20.75;;;12.27;;
23519;SDS011;11936;50.820;4.336;2022-12-08T07:59:33;21.58;;;12.35;;
23519;SDS011;11936;50.820;4.336;2022-12-08T08:01:59;19.05;;;11.85;;
23519;SDS011;11936;50.820;4.336;2022-12-08T08:04:25;20.38;;;11.15;;
23519;SDS011;11936;50.820;4.336;2022-12-08T08:06:50;22.42;;;11.48;;
23519;SDS011;11936;50.820;4.336;2022-12-08T08:09:16;20.50;;;11.40;;
23519;SDS011;11936;50.820;4.336;2022-12-08T08:11:42;23.40;;;12.60;;
23519;SDS011;11936;50.820;4.336;2022-12-08T08:14:07;16.42;;;10.90;;
23519;SDS011;11936;50.820;4.336;2022-12-08T08:16:33;22.45;;;12.73;;
23519;SDS011;11936;50.820;4.336;2022-12-08T08:18:58;17.90;;;11.05;;
23519;SDS011;11936;50.820;4.336;2022-12-08T08:21:24;21.17;;;12.77;;
23519;SDS011;11936;50.820;4.336;2022-12-08T08:23:49;28.45;;;11.73;;
23519;SDS011;11936;50.820;4.336;2022-12-08T08:26:15;28.52;;;11.55;;
23519;SDS011;11936;50.820;4.336;2022-12-08T08:28:41;24.60;;;12.10;;
23519;SDS011;11936;50.820;4.336;2022-12-08T08:31:09;22.52;;;12.77;;
23519;SDS011;11936;50.820;4.336;2022-12-08T08:33:35;20.50;;;11.95;;
23519;SDS011;11936;50.820;4.336;2022-12-08T08:36:01;28.17;;;13.20;;
23519;SDS011;11936;50.820;4.336;2022-12-08T08:38:31;28.88;;;13.85;;
23519;SDS011;11936;50.820;4.336;2022-12-08T08:40:56;33.13;;;12.60;;
23519;SDS011;11936;50.820;4.336;2022-12-08T08:43:22;23.05;;;13.30;;
23519;SDS011;11936;50.820;4.336;2022-12-08T08:45:57;25.75;;;13.27;;
23519;SDS011;11936;50.820;4.336;2022-12-08T08:48:24;25.00;;;13.50;;
23519;SDS011;11936;50.820;4.336;2022-12-08T08:50:51;24.43;;;14.70;;
23519;SDS011;11936;50.820;4.336;2022-12-08T08:53:18;25.33;;;13.75;;
23519;SDS011;11936;50.820;4.336;2022-12-08T08:55:44;30.88;;;14.70;;
23519;SDS011;11936;50.820;4.336;2022-12-08T08:58:09;28.77;;;13.90;;
23519;SDS011;11936;50.820;4.336;2022-12-08T09:00:35;25.55;;;14.27;;
23519;SDS011;11936;50.820;4.336;2022-12-08T09:03:00;23.02;;;13.07;;
23519;SDS011;11936;50.820;4.336;2022-12-08T09:05:26;28.77;;;13.68;;
23519;SDS011;11936;50.820;4.336;2022-12-08T09:07:51;22.27;;;13.43;;
23519;SDS011;11936;50.820;4.336;2022-12-08T09:10:17;27.70;;;13.55;;
23519;SDS011;11936;50.820;4.336;2022-12-08T09:12:43;27.52;;;13.98;;
23519;SDS011;11936;50.820;4.336;2022-12-08T09:15:08;24.63;;;12.80;;
23519;SDS011;11936;50.820;4.336;2022-12-08T09:17:34;29.52;;;14.48;;
23519;SDS011;11936;50.820;4.336;2022-12-08T09:20:00;26.70;;;12.90;;
23519;SDS011;11936;50.820;4.336;2022-12-08T09:22:26;20.17;;;12.98;;
23519;SDS011;11936;50.820;4.336;2022-12-08T09:24:51;22.90;;;13.00;;
23519;SDS011;11936;50.820;4.336;2022-12-08T09:27:17;23.92;;;13.65;;
23519;SDS011;11936;50.820;4.336;2022-12-08T09:29:43;25.70;;;13.73;;
23519;SDS011;11936;50.820;4.336;2022-12-08T09:32:08;24.83;;;13.25;;
23519;SDS011;11936;50.820;4.336;2022-12-08T09:34:34;26.95;;;13.18;;
23519;SDS011;11936;50.820;4.336;2022-12-08T09:37:00;27.13;;;12.68;;
23519;SDS011;11936;50.820;4.336;2022-12-08T09:39:26;33.42;;;14.20;;
23519;SDS011;11936;50.820;4.336;2022-12-08T09:41:55;28.33;;;14.30;;
23519;SDS011;11936;50.820;4.336;2022-12-08T09:47:03;23.10;;;12.57;;
23519;SDS011;11936;50.820;4.336;2022-12-08T09:49:37;20.63;;;12.15;;
23519;SDS011;11936;50.820;4.336;2022-12-08T09:52:08;25.25;;;13.25;;
23519;SDS011;11936;50.820;4.336;2022-12-08T09:54:59;31.25;;;13.70;;
23519;SDS011;11936;50.820;4.336;2022-12-08T09:57:33;22.80;;;13.05;;
23519;SDS011;11936;50.820;4.336;2022-12-08T10:00:00;29.23;;;12.48;;
23519;SDS011;11936;50.820;4.336;2022-12-08T10:02:28;28.33;;;12.35;;
23519;SDS011;11936;50.820;4.336;2022-12-08T10:04:55;23.17;;;12.40;;
23519;SDS011;11936;50.820;4.336;2022-12-08T10:12:26;21.50;;;12.65;;
23519;SDS011;11936;50.820;4.336;2022-12-08T10:15:04;23.23;;;12.07;;
23519;SDS011;11936;50.820;4.336;2022-12-08T10:17:39;26.20;;;11.57;;
23519;SDS011;11936;50.820;4.336;2022-12-08T10:22:40;31.75;;;11.93;;
23519;SDS011;11936;50.820;4.336;2022-12-08T10:25:17;26.65;;;12.07;;
23519;SDS011;11936;50.820;4.336;2022-12-08T10:27:43;30.30;;;11.98;;
23519;SDS011;11936;50.820;4.336;2022-12-08T10:30:14;33.63;;;12.18;;
23519;SDS011;11936;50.820;4.336;2022-12-08T10:32:44;27.55;;;11.88;;
23519;SDS011;11936;50.820;4.336;2022-12-08T10:35:13;18.42;;;10.70;;
23519;SDS011;11936;50.820;4.336;2022-12-08T10:40:18;28.17;;;11.43;;
23519;SDS011;11936;50.820;4.336;2022-12-08T10:42:45;26.35;;;10.77;;
23519;SDS011;11936;50.820;4.336;2022-12-08T10:45:28;23.10;;;11.50;;
23519;SDS011;11936;50.820;4.336;2022-12-08T10:48:01;64.50;;;13.90;;
23519;SDS011;11936;50.820;4.336;2022-12-08T10:50:30;35.47;;;11.52;;
23519;SDS011;11936;50.820;4.336;2022-12-08T10:52:59;26.50;;;10.75;;
23519;SDS011;11936;50.820;4.336;2022-12-08T10:57:52;26.35;;;11.40;;
23519;SDS011;11936;50.820;4.336;2022-12-08T11:00:22;22.65;;;11.07;;
23519;SDS011;11936;50.820;4.336;2022-12-08T11:03:18;33.85;;;10.88;;
23519;SDS011;11936;50.820;4.336;2022-12-08T11:05:46;24.45;;;10.63;;
23519;SDS011;11936;50.820;4.336;2022-12-08T11:08:11;19.20;;;11.55;;
23519;SDS011;11936;50.820;4.336;2022-12-08T11:10:43;22.55;;;11.40;;
23519;SDS011;11936;50.820;4.336;2022-12-08T11:13:17;20.55;;;10.90;;
23519;SDS011;11936;50.820;4.336;2022-12-08T11:15:46;28.67;;;11.98;;
23519;SDS011;11936;50.820;4.336;2022-12-08T11:18:28;30.73;;;11.32;;
23519;SDS011;11936;50.820;4.336;2022-12-08T11:21:09;28.88;;;11.38;;
23519;SDS011;11936;50.820;4.336;2022-12-08T11:23:40;27.52;;;11.90;;
23519;SDS011;11936;50.820;4.336;2022-12-08T11:26:26;28.60;;;11.60;;
23519;SDS011;11936;50.820;4.336;2022-12-08T11:28:56;20.10;;;11.20;;
23519;SDS011;11936;50.820;4.336;2022-12-08T11:34:05;22.85;;;11.27;;
23519;SDS011;11936;50.820;4.336;2022-12-08T11:36:33;24.15;;;11.25;;
23519;SDS011;11936;50.820;4.336;2022-12-08T11:39:02;24.20;;;10.10;;
23519;SDS011;11936;50.820;4.336;2022-12-08T11:41:36;17.98;;;10.15;;
23519;SDS011;11936;50.820;4.336;2022-12-08T11:46:56;16.27;;;9.32;;
23519;SDS011;11936;50.820;4.336;2022-12-08T11:49:36;16.13;;;9.15;;
23519;SDS011;11936;50.820;4.336;2022-12-08T11:54:42;23.17;;;9.38;;
23519;SDS011;11936;50.820;4.336;2022-12-08T11:57:15;18.52;;;9.18;;
23519;SDS011;11936;50.820;4.336;2022-12-08T11:59:47;18.77;;;8.98;;
23519;SDS011;11936;50.820;4.336;2022-12-08T12:02:22;12.68;;;8.43;;
23519;SDS011;11936;50.820;4.336;2022-12-08T12:07:43;18.77;;;8.85;;
23519;SDS011;11936;50.820;4.336;2022-12-08T12:21:54;17.00;;;9.15;;
23519;SDS011;11936;50.820;4.336;2022-12-08T12:24:30;20.27;;;9.10;;
23519;SDS011;11936;50.820;4.336;2022-12-08T12:27:02;21.52;;;9.05;;
23519;SDS011;11936;50.820;4.336;2022-12-08T12:29:45;20.65;;;9.63;;
23519;SDS011;11936;50.820;4.336;2022-12-08T12:32:14;21.08;;;10.32;;
23519;SDS011;11936;50.820;4.336;2022-12-08T12:34:45;24.35;;;10.27;;
23519;SDS011;11936;50.820;4.336;2022-12-08T12:37:14;19.77;;;9.80;;
23519;SDS011;11936;50.820;4.336;2022-12-08T12:39:48;23.88;;;10.05;;
23519;SDS011;11936;50.820;4.336;2022-12-08T12:47:49;18.42;;;9.52;;
23519;SDS011;11936;50.820;4.336;2022-12-08T12:53:02;16.77;;;9.68;;
23519;SDS011;11936;50.820;4.336;2022-12-08T13:01:34;20.30;;;9.35;;
23519;SDS011;11936;50.820;4.336;2022-12-08T13:04:03;16.27;;;9.65;;
23519;SDS011;11936;50.820;4.336;2022-12-08T13:06:36;21.02;;;10.10;;
23519;SDS011;11936;50.820;4.336;2022-12-08T13:09:21;18.50;;;9.30;;
23519;SDS011;11936;50.820;4.336;2022-12-08T13:11:53;16.15;;;8.80;;
23519;SDS011;11936;50.820;4.336;2022-12-08T13:14:24;31.95;;;10.20;;
23519;SDS011;11936;50.820;4.336;2022-12-08T13:17:15;14.93;;;8.52;;
23519;SDS011;11936;50.820;4.336;2022-12-08T13:19:50;17.23;;;9.23;;
23519;SDS011;11936;50.820;4.336;2022-12-08T13:28:16;19.10;;;8.55;;
23519;SDS011;11936;50.820;4.336;2022-12-08T13:30:45;21.98;;;11.18;;
23519;SDS011;11936;50.820;4.336;2022-12-08T13:33:17;23.42;;;9.90;;
23519;SDS011;11936;50.820;4.336;2022-12-08T13:35:49;18.60;;;10.27;;
23519;SDS011;11936;50.820;4.336;2022-12-08T13:38:21;13.48;;;8.10;;
23519;SDS011;11936;50.820;4.336;2022-12-08T13:40:52;14.13;;;8.23;;
23519;SDS011;11936;50.820;4.336;2022-12-08T13:43:31;17.20;;;8.68;;
23519;SDS011;11936;50.820;4.336;2022-12-08T13:46:08;22.17;;;9.57;;
23519;SDS011;11936;50.820;4.336;2022-12-08T13:48:43;14.38;;;8.35;;
23519;SDS011;11936;50.820;4.336;2022-12-08T13:51:17;13.27;;;7.65;;
23519;SDS011;11936;50.820;4.336;2022-12-08T13:53:56;13.65;;;7.03;;
23519;SDS011;11936;50.820;4.336;2022-12-08T13:56:26;13.13;;;7.07;;
23519;SDS011;11936;50.820;4.336;2022-12-08T13:59:05;15.98;;;7.10;;
23519;SDS011;11936;50.820;4.336;2022-12-08T14:01:52;10.15;;;6.75;;
23519;SDS011;11936;50.820;4.336;2022-12-08T14:04:21;14.48;;;7.28;;
23519;SDS011;11936;50.820;4.336;2022-12-08T14:06:49;14.73;;;7.43;;
23519;SDS011;11936;50.820;4.336;2022-12-08T14:09:18;16.55;;;8.30;;
23519;SDS011;11936;50.820;4.336;2022-12-08T14:11:49;20.13;;;7.63;;
23519;SDS011;11936;50.820;4.336;2022-12-08T14:14:41;14.60;;;7.20;;
23519;SDS011;11936;50.820;4.336;2022-12-08T14:17:13;15.95;;;7.72;;
23519;SDS011;11936;50.820;4.336;2022-12-08T14:19:42;18.83;;;6.88;;
23519;SDS011;11936;50.820;4.336;2022-12-08T14:22:16;13.48;;;7.22;;
23519;SDS011;11936;50.820;4.336;2022-12-08T14:24:49;14.93;;;6.78;;
23519;SDS011;11936;50.820;4.336;2022-12-08T14:27:21;16.38;;;7.35;;
23519;SDS011;11936;50.820;4.336;2022-12-08T14:29:52;12.55;;;6.78;;
23519;SDS011;11936;50.820;4.336;2022-12-08T14:37:16;18.88;;;8.60;;
23519;SDS011;11936;50.820;4.336;2022-12-08T14:39:42;14.05;;;7.65;;
23519;SDS011;11936;50.820;4.336;2022-12-08T14:42:11;17.77;;;7.50;;
23519;SDS011;11936;50.820;4.336;2022-12-08T14:44:54;22.98;;;9.27;;
23519;SDS011;11936;50.820;4.336;2022-12-08T14:47:22;13.85;;;8.40;;
23519;SDS011;11936;50.820;4.336;2022-12-08T14:49:53;19.08;;;7.88;;
23519;SDS011;11936;50.820;4.336;2022-12-08T14:52:19;15.68;;;7.45;;
23519;SDS011;11936;50.820;4.336;2022-12-08T14:54:45;13.63;;;7.80;;
23519;SDS011;11936;50.820;4.336;2022-12-08T14:57:14;17.20;;;7.82;;
23519;SDS011;11936;50.820;4.336;2022-12-08T14:59:40;16.48;;;8.10;;
23519;SDS011;11936;50.820;4.336;2022-12-08T15:07:45;18.33;;;7.93;;
23519;SDS011;11936;50.820;4.336;2022-12-08T15:12:39;10.18;;;6.00;;
23519;SDS011;11936;50.820;4.336;2022-12-08T15:15:20;12.57;;;6.82;;
23519;SDS011;11936;50.820;4.336;2022-12-08T15:22:52;14.35;;;7.20;;
23519;SDS011;11936;50.820;4.336;2022-12-08T15:25:19;11.00;;;6.55;;
23519;SDS011;11936;50.820;4.336;2022-12-08T15:27:44;20.20;;;7.35;;
23519;SDS011;11936;50.820;4.336;2022-12-08T15:30:14;10.40;;;6.38;;
23519;SDS011;11936;50.820;4.336;2022-12-08T15:32:41;10.80;;;7.03;;
23519;SDS011;11936;50.820;4.336;2022-12-08T15:35:11;13.50;;;7.43;;
23519;SDS011;11936;50.820;4.336;2022-12-08T15:37:40;16.25;;;7.45;;
23519;SDS011;11936;50.820;4.336;2022-12-08T15:40:08;13.15;;;7.32;;
23519;SDS011;11936;50.820;4.336;2022-12-08T15:42:42;11.50;;;6.80;;
23519;SDS011;11936;50.820;4.336;2022-12-08T15:45:12;15.30;;;5.72;;
23519;SDS011;11936;50.820;4.336;2022-12-08T15:47:38;8.27;;;5.72;;
23519;SDS011;11936;50.820;4.336;2022-12-08T15:50:06;12.10;;;6.60;;
23519;SDS011;11936;50.820;4.336;2022-12-08T15:52:38;9.52;;;5.50;;
23519;SDS011;11936;50.820;4.336;2022-12-08T15:55:04;11.25;;;6.88;;
23519;SDS011;11936;50.820;4.336;2022-12-08T15:57:30;10.57;;;6.28;;
23519;SDS011;11936;50.820;4.336;2022-12-08T15:59:56;6.78;;;5.53;;
23519;SDS011;11936;50.820;4.336;2022-12-08T16:02:22;9.30;;;5.55;;
23519;SDS011;11936;50.820;4.336;2022-12-08T16:04:48;7.53;;;5.15;;
23519;SDS011;11936;50.820;4.336;2022-12-08T16:07:22;12.52;;;6.25;;
23519;SDS011;11936;50.820;4.336;2022-12-08T16:09:51;10.95;;;5.88;;
23519;SDS011;11936;50.820;4.336;2022-12-08T16:12:18;7.38;;;4.43;;
23519;SDS011;11936;50.820;4.336;2022-12-08T16:15:04;7.05;;;3.80;;
23519;SDS011;11936;50.820;4.336;2022-12-08T16:17:30;7.57;;;3.85;;
23519;SDS011;11936;50.820;4.336;2022-12-08T16:19:57;7.68;;;4.00;;
23519;SDS011;11936;50.820;4.336;2022-12-08T16:22:26;8.65;;;3.60;;
23519;SDS011;11936;50.820;4.336;2022-12-08T16:24:54;9.30;;;4.00;;
23519;SDS011;11936;50.820;4.336;2022-12-08T16:27:21;7.43;;;3.95;;